sensor_id;sensor_type;location;lat;lon;timestamp;P1;durP1;ratioP1;P2;durP2;ratioP2
22752;SDS011;11543;43.144;24.684;2022-08-01T00:00:09;2.58;;;1.75;;
22752;SDS011;11543;43.144;24.684;2022-08-01T00:02:38;4.45;;;1.88;;
22752;SDS011;11543;43.144;24.684;2022-08-01T00:05:05;5.57;;;1.70;;
22752;SDS011;11543;43.144;24.684;2022-08-01T00:07:32;4.28;;;2.22;;
22752;SDS011;11543;43.144;24.684;2022-08-01T00:09:57;2.95;;;2.00;;
22752;SDS011;11543;43.144;24.684;2022-08-01T00:12:23;3.70;;;2.05;;
22752;SDS011;11543;43.144;24.684;2022-08-01T00:14:48;5.47;;;1.75;;
22752;SDS011;11543;43.144;24.684;2022-08-01T00:17:14;2.85;;;1.63;;
22752;SDS011;11543;43.144;24.684;2022-08-01T00:19:40;3.28;;;1.60;;
22752;SDS011;11543;43.144;24.684;2022-08-01T00:22:05;3.05;;;1.55;;
22752;SDS011;11543;43.144;24.684;2022-08-01T00:24:31;3.47;;;1.67;;
22752;SDS011;11543;43.144;24.684;2022-08-01T00:26:56;3.97;;;1.63;;
22752;SDS011;11543;43.144;24.684;2022-08-01T00:29:22;4.45;;;1.60;;
22752;SDS011;11543;43.144;24.684;2022-08-01T00:31:47;4.10;;;1.73;;
22752;SDS011;11543;43.144;24.684;2022-08-01T00:34:13;4.40;;;1.45;;
22752;SDS011;11543;43.144;24.684;2022-08-01T00:36:38;5.40;;;1.65;;
22752;SDS011;11543;43.144;24.684;2022-08-01T00:39:04;4.32;;;1.70;;
22752;SDS011;11543;43.144;24.684;2022-08-01T00:41:29;3.17;;;1.70;;
22752;SDS011;11543;43.144;24.684;2022-08-01T00:43:54;2.13;;;1.48;;
22752;SDS011;11543;43.144;24.684;2022-08-01T00:46:20;2.30;;;1.38;;
22752;SDS011;11543;43.144;24.684;2022-08-01T00:48:46;3.13;;;1.58;;
22752;SDS011;11543;43.144;24.684;2022-08-01T00:51:11;2.92;;;1.63;;
22752;SDS011;11543;43.144;24.684;2022-08-01T00:53:38;10.52;;;1.90;;
22752;SDS011;11543;43.144;24.684;2022-08-01T00:56:04;6.85;;;1.60;;
22752;SDS011;11543;43.144;24.684;2022-08-01T00:58:29;5.47;;;1.60;;
22752;SDS011;11543;43.144;24.684;2022-08-01T01:00:57;3.88;;;1.27;;
22752;SDS011;11543;43.144;24.684;2022-08-01T01:03:23;6.03;;;1.70;;
22752;SDS011;11543;43.144;24.684;2022-08-01T01:06:05;5.88;;;1.70;;
22752;SDS011;11543;43.144;24.684;2022-08-01T01:08:51;3.35;;;1.50;;
22752;SDS011;11543;43.144;24.684;2022-08-01T01:11:37;2.85;;;1.60;;
22752;SDS011;11543;43.144;24.684;2022-08-01T01:14:10;2.13;;;1.50;;
22752;SDS011;11543;43.144;24.684;2022-08-01T01:16:47;2.67;;;1.40;;
22752;SDS011;11543;43.144;24.684;2022-08-01T01:19:16;3.13;;;1.35;;
22752;SDS011;11543;43.144;24.684;2022-08-01T01:22:00;4.53;;;1.40;;
22752;SDS011;11543;43.144;24.684;2022-08-01T01:24:55;3.17;;;1.23;;
22752;SDS011;11543;43.144;24.684;2022-08-01T01:27:57;3.13;;;1.20;;
22752;SDS011;11543;43.144;24.684;2022-08-01T01:30:26;2.85;;;1.30;;
22752;SDS011;11543;43.144;24.684;2022-08-01T01:32:55;5.38;;;1.30;;
22752;SDS011;11543;43.144;24.684;2022-08-01T01:35:25;2.50;;;1.55;;
22752;SDS011;11543;43.144;24.684;2022-08-01T01:37:58;3.80;;;1.48;;
22752;SDS011;11543;43.144;24.684;2022-08-01T01:40:29;3.03;;;1.33;;
22752;SDS011;11543;43.144;24.684;2022-08-01T01:42:55;3.92;;;1.40;;
22752;SDS011;11543;43.144;24.684;2022-08-01T01:45:25;3.50;;;1.42;;
22752;SDS011;11543;43.144;24.684;2022-08-01T01:47:52;1.73;;;1.10;;
22752;SDS011;11543;43.144;24.684;2022-08-01T01:50:22;2.65;;;1.15;;
22752;SDS011;11543;43.144;24.684;2022-08-01T01:52:50;1.42;;;1.15;;
22752;SDS011;11543;43.144;24.684;2022-08-01T01:55:17;4.25;;;1.35;;
22752;SDS011;11543;43.144;24.684;2022-08-01T01:57:46;2.95;;;1.20;;
22752;SDS011;11543;43.144;24.684;2022-08-01T02:00:13;2.22;;;1.30;;
22752;SDS011;11543;43.144;24.684;2022-08-01T02:02:40;4.82;;;1.10;;
22752;SDS011;11543;43.144;24.684;2022-08-01T02:05:08;3.65;;;1.30;;
22752;SDS011;11543;43.144;24.684;2022-08-01T02:07:35;3.80;;;1.30;;
22752;SDS011;11543;43.144;24.684;2022-08-01T02:10:02;3.92;;;1.50;;
22752;SDS011;11543;43.144;24.684;2022-08-01T02:12:29;4.57;;;1.30;;
22752;SDS011;11543;43.144;24.684;2022-08-01T02:15:00;1.50;;;1.10;;
22752;SDS011;11543;43.144;24.684;2022-08-01T02:17:27;2.13;;;1.10;;
22752;SDS011;11543;43.144;24.684;2022-08-01T02:19:54;1.95;;;1.30;;
22752;SDS011;11543;43.144;24.684;2022-08-01T02:25:02;2.60;;;1.20;;
22752;SDS011;11543;43.144;24.684;2022-08-01T02:27:40;2.53;;;1.10;;
22752;SDS011;11543;43.144;24.684;2022-08-01T02:30:10;2.53;;;1.20;;
22752;SDS011;11543;43.144;24.684;2022-08-01T02:32:44;3.28;;;1.10;;
22752;SDS011;11543;43.144;24.684;2022-08-01T02:35:18;1.90;;;1.20;;
22752;SDS011;11543;43.144;24.684;2022-08-01T02:37:47;2.03;;;1.15;;
22752;SDS011;11543;43.144;24.684;2022-08-01T02:40:14;2.50;;;1.23;;
22752;SDS011;11543;43.144;24.684;2022-08-01T02:42:43;3.22;;;1.27;;
22752;SDS011;11543;43.144;24.684;2022-08-01T02:45:12;3.88;;;1.10;;
22752;SDS011;11543;43.144;24.684;2022-08-01T02:47:38;2.38;;;1.25;;
22752;SDS011;11543;43.144;24.684;2022-08-01T02:50:07;2.58;;;1.30;;
22752;SDS011;11543;43.144;24.684;2022-08-01T02:52:36;1.58;;;1.17;;
22752;SDS011;11543;43.144;24.684;2022-08-01T02:55:03;2.83;;;1.20;;
22752;SDS011;11543;43.144;24.684;2022-08-01T02:57:29;6.22;;;1.27;;
22752;SDS011;11543;43.144;24.684;2022-08-01T02:59:56;2.97;;;1.10;;
22752;SDS011;11543;43.144;24.684;2022-08-01T03:02:23;2.45;;;1.00;;
22752;SDS011;11543;43.144;24.684;2022-08-01T03:04:50;2.35;;;1.20;;
22752;SDS011;11543;43.144;24.684;2022-08-01T03:07:18;5.88;;;2.85;;
22752;SDS011;11543;43.144;24.684;2022-08-01T03:09:45;2.53;;;1.73;;
22752;SDS011;11543;43.144;24.684;2022-08-01T03:12:14;7.05;;;1.83;;
22752;SDS011;11543;43.144;24.684;2022-08-01T03:14:44;3.20;;;2.60;;
22752;SDS011;11543;43.144;24.684;2022-08-01T03:17:13;3.47;;;2.03;;
22752;SDS011;11543;43.144;24.684;2022-08-01T03:19:41;3.83;;;2.30;;
22752;SDS011;11543;43.144;24.684;2022-08-01T03:22:10;4.35;;;1.70;;
22752;SDS011;11543;43.144;24.684;2022-08-01T03:24:38;3.17;;;2.63;;
22752;SDS011;11543;43.144;24.684;2022-08-01T03:27:05;3.58;;;2.70;;
22752;SDS011;11543;43.144;24.684;2022-08-01T03:29:32;6.22;;;4.20;;
22752;SDS011;11543;43.144;24.684;2022-08-01T03:31:59;5.70;;;3.05;;
22752;SDS011;11543;43.144;24.684;2022-08-01T03:34:26;3.97;;;1.80;;
22752;SDS011;11543;43.144;24.684;2022-08-01T03:36:59;3.92;;;2.22;;
22752;SDS011;11543;43.144;24.684;2022-08-01T03:39:33;4.80;;;1.88;;
22752;SDS011;11543;43.144;24.684;2022-08-01T03:42:05;4.28;;;1.63;;
22752;SDS011;11543;43.144;24.684;2022-08-01T03:44:35;2.78;;;1.73;;
22752;SDS011;11543;43.144;24.684;2022-08-01T03:47:05;7.38;;;2.88;;
22752;SDS011;11543;43.144;24.684;2022-08-01T03:49:35;5.20;;;2.83;;
22752;SDS011;11543;43.144;24.684;2022-08-01T03:52:03;2.90;;;1.85;;
22752;SDS011;11543;43.144;24.684;2022-08-01T03:54:32;2.88;;;1.90;;
22752;SDS011;11543;43.144;24.684;2022-08-01T03:57:00;3.63;;;2.00;;
22752;SDS011;11543;43.144;24.684;2022-08-01T03:59:27;6.57;;;2.55;;
22752;SDS011;11543;43.144;24.684;2022-08-01T04:01:55;3.85;;;1.80;;
22752;SDS011;11543;43.144;24.684;2022-08-01T04:04:20;5.32;;;2.35;;
22752;SDS011;11543;43.144;24.684;2022-08-01T04:06:46;7.03;;;1.85;;
22752;SDS011;11543;43.144;24.684;2022-08-01T04:09:15;4.80;;;1.90;;
22752;SDS011;11543;43.144;24.684;2022-08-01T04:11:41;3.80;;;1.60;;
22752;SDS011;11543;43.144;24.684;2022-08-01T04:14:06;4.35;;;1.40;;
22752;SDS011;11543;43.144;24.684;2022-08-01T04:16:32;6.60;;;1.40;;
22752;SDS011;11543;43.144;24.684;2022-08-01T04:18:58;3.80;;;1.33;;
22752;SDS011;11543;43.144;24.684;2022-08-01T04:21:24;2.85;;;1.42;;
22752;SDS011;11543;43.144;24.684;2022-08-01T04:23:54;2.92;;;1.42;;
22752;SDS011;11543;43.144;24.684;2022-08-01T04:26:23;2.40;;;1.30;;
22752;SDS011;11543;43.144;24.684;2022-08-01T04:28:50;3.53;;;1.20;;
22752;SDS011;11543;43.144;24.684;2022-08-01T04:31:19;4.10;;;1.50;;
22752;SDS011;11543;43.144;24.684;2022-08-01T04:33:49;5.68;;;1.13;;
22752;SDS011;11543;43.144;24.684;2022-08-01T04:36:16;4.40;;;1.20;;
22752;SDS011;11543;43.144;24.684;2022-08-01T04:38:45;2.63;;;1.30;;
22752;SDS011;11543;43.144;24.684;2022-08-01T04:41:13;1.73;;;1.15;;
22752;SDS011;11543;43.144;24.684;2022-08-01T04:43:40;4.88;;;1.30;;
22752;SDS011;11543;43.144;24.684;2022-08-01T04:46:06;3.78;;;1.23;;
22752;SDS011;11543;43.144;24.684;2022-08-01T04:48:34;3.17;;;1.10;;
22752;SDS011;11543;43.144;24.684;2022-08-01T04:51:04;2.70;;;1.20;;
22752;SDS011;11543;43.144;24.684;2022-08-01T04:53:36;8.40;;;1.25;;
22752;SDS011;11543;43.144;24.684;2022-08-01T04:56:01;2.83;;;1.40;;
22752;SDS011;11543;43.144;24.684;2022-08-01T04:58:27;2.95;;;1.20;;
22752;SDS011;11543;43.144;24.684;2022-08-01T05:00:52;4.47;;;1.65;;
22752;SDS011;11543;43.144;24.684;2022-08-01T05:03:18;7.65;;;1.20;;
22752;SDS011;11543;43.144;24.684;2022-08-01T05:05:43;2.85;;;1.40;;
22752;SDS011;11543;43.144;24.684;2022-08-01T05:08:09;7.00;;;1.67;;
22752;SDS011;11543;43.144;24.684;2022-08-01T05:10:35;3.08;;;1.20;;
22752;SDS011;11543;43.144;24.684;2022-08-01T05:13:00;5.43;;;1.17;;
22752;SDS011;11543;43.144;24.684;2022-08-01T05:15:25;2.35;;;1.20;;
22752;SDS011;11543;43.144;24.684;2022-08-01T05:17:52;3.05;;;1.10;;
22752;SDS011;11543;43.144;24.684;2022-08-01T05:20:17;6.18;;;1.20;;
22752;SDS011;11543;43.144;24.684;2022-08-01T05:22:43;5.55;;;1.50;;
22752;SDS011;11543;43.144;24.684;2022-08-01T05:25:08;3.63;;;2.15;;
22752;SDS011;11543;43.144;24.684;2022-08-01T05:27:34;4.00;;;2.08;;
22752;SDS011;11543;43.144;24.684;2022-08-01T05:30:05;3.50;;;1.30;;
22752;SDS011;11543;43.144;24.684;2022-08-01T05:32:34;5.78;;;1.40;;
22752;SDS011;11543;43.144;24.684;2022-08-01T05:35:00;2.47;;;1.00;;
22752;SDS011;11543;43.144;24.684;2022-08-01T05:37:25;2.75;;;1.00;;
22752;SDS011;11543;43.144;24.684;2022-08-01T05:39:51;2.50;;;1.17;;
22752;SDS011;11543;43.144;24.684;2022-08-01T05:42:16;4.45;;;1.13;;
22752;SDS011;11543;43.144;24.684;2022-08-01T05:44:42;3.38;;;1.10;;
22752;SDS011;11543;43.144;24.684;2022-08-01T05:47:07;8.00;;;1.60;;
22752;SDS011;11543;43.144;24.684;2022-08-01T05:49:32;3.78;;;1.40;;
22752;SDS011;11543;43.144;24.684;2022-08-01T05:51:58;3.67;;;1.10;;
22752;SDS011;11543;43.144;24.684;2022-08-01T05:54:25;4.78;;;1.42;;
22752;SDS011;11543;43.144;24.684;2022-08-01T05:56:51;4.43;;;1.30;;
22752;SDS011;11543;43.144;24.684;2022-08-01T05:59:16;5.60;;;1.60;;
22752;SDS011;11543;43.144;24.684;2022-08-01T06:01:42;4.25;;;1.50;;
22752;SDS011;11543;43.144;24.684;2022-08-01T06:04:07;4.30;;;2.90;;
22752;SDS011;11543;43.144;24.684;2022-08-01T06:06:33;3.25;;;1.80;;
22752;SDS011;11543;43.144;24.684;2022-08-01T06:08:58;5.47;;;1.30;;
22752;SDS011;11543;43.144;24.684;2022-08-01T06:11:24;3.72;;;1.10;;
22752;SDS011;11543;43.144;24.684;2022-08-01T06:13:49;3.40;;;1.13;;
22752;SDS011;11543;43.144;24.684;2022-08-01T06:16:15;6.53;;;1.00;;
22752;SDS011;11543;43.144;24.684;2022-08-01T06:18:41;3.20;;;0.90;;
22752;SDS011;11543;43.144;24.684;2022-08-01T06:21:06;2.35;;;1.10;;
22752;SDS011;11543;43.144;24.684;2022-08-01T06:23:32;2.08;;;1.15;;
22752;SDS011;11543;43.144;24.684;2022-08-01T06:25:57;4.43;;;1.55;;
22752;SDS011;11543;43.144;24.684;2022-08-01T06:28:23;3.53;;;1.25;;
22752;SDS011;11543;43.144;24.684;2022-08-01T06:30:49;7.55;;;1.20;;
22752;SDS011;11543;43.144;24.684;2022-08-01T06:33:14;7.07;;;1.92;;
22752;SDS011;11543;43.144;24.684;2022-08-01T06:35:40;3.05;;;1.13;;
22752;SDS011;11543;43.144;24.684;2022-08-01T06:38:05;3.47;;;2.05;;
22752;SDS011;11543;43.144;24.684;2022-08-01T06:40:31;7.85;;;1.20;;
22752;SDS011;11543;43.144;24.684;2022-08-01T06:42:56;3.50;;;1.25;;
22752;SDS011;11543;43.144;24.684;2022-08-01T06:45:22;5.93;;;1.10;;
22752;SDS011;11543;43.144;24.684;2022-08-01T06:47:49;5.10;;;1.52;;
22752;SDS011;11543;43.144;24.684;2022-08-01T06:50:15;3.83;;;1.15;;
22752;SDS011;11543;43.144;24.684;2022-08-01T06:52:40;2.47;;;1.00;;
22752;SDS011;11543;43.144;24.684;2022-08-01T06:55:06;3.88;;;1.20;;
22752;SDS011;11543;43.144;24.684;2022-08-01T06:57:32;5.70;;;1.20;;
22752;SDS011;11543;43.144;24.684;2022-08-01T07:00:00;6.40;;;1.02;;
22752;SDS011;11543;43.144;24.684;2022-08-01T07:02:31;4.13;;;1.10;;
22752;SDS011;11543;43.144;24.684;2022-08-01T07:04:56;1.80;;;1.10;;
22752;SDS011;11543;43.144;24.684;2022-08-01T07:07:25;2.35;;;0.80;;
22752;SDS011;11543;43.144;24.684;2022-08-01T07:09:51;4.13;;;1.00;;
22752;SDS011;11543;43.144;24.684;2022-08-01T07:12:16;4.40;;;1.17;;
22752;SDS011;11543;43.144;24.684;2022-08-01T07:14:41;4.57;;;1.25;;
22752;SDS011;11543;43.144;24.684;2022-08-01T07:17:07;1.90;;;1.00;;
22752;SDS011;11543;43.144;24.684;2022-08-01T07:19:32;5.88;;;1.10;;
22752;SDS011;11543;43.144;24.684;2022-08-01T07:21:58;1.98;;;0.98;;
22752;SDS011;11543;43.144;24.684;2022-08-01T07:24:23;4.53;;;0.90;;
22752;SDS011;11543;43.144;24.684;2022-08-01T07:26:49;3.58;;;1.10;;
22752;SDS011;11543;43.144;24.684;2022-08-01T07:29:15;2.47;;;0.90;;
22752;SDS011;11543;43.144;24.684;2022-08-01T07:31:40;2.65;;;0.90;;
22752;SDS011;11543;43.144;24.684;2022-08-01T07:34:06;2.38;;;0.88;;
22752;SDS011;11543;43.144;24.684;2022-08-01T07:36:32;3.92;;;0.77;;
22752;SDS011;11543;43.144;24.684;2022-08-01T07:38:57;4.53;;;0.80;;
22752;SDS011;11543;43.144;24.684;2022-08-01T07:41:23;5.18;;;1.10;;
22752;SDS011;11543;43.144;24.684;2022-08-01T07:43:48;2.58;;;0.90;;
22752;SDS011;11543;43.144;24.684;2022-08-01T07:46:14;2.53;;;0.80;;
22752;SDS011;11543;43.144;24.684;2022-08-01T07:48:41;4.25;;;0.90;;
22752;SDS011;11543;43.144;24.684;2022-08-01T07:51:06;3.83;;;0.80;;
22752;SDS011;11543;43.144;24.684;2022-08-01T07:53:33;1.85;;;1.00;;
22752;SDS011;11543;43.144;24.684;2022-08-01T07:55:58;1.70;;;0.80;;
22752;SDS011;11543;43.144;24.684;2022-08-01T07:58:24;3.85;;;0.70;;
22752;SDS011;11543;43.144;24.684;2022-08-01T08:00:50;6.03;;;0.80;;
22752;SDS011;11543;43.144;24.684;2022-08-01T08:03:15;1.95;;;0.70;;
22752;SDS011;11543;43.144;24.684;2022-08-01T08:05:41;1.88;;;0.80;;
22752;SDS011;11543;43.144;24.684;2022-08-01T08:08:06;1.85;;;0.85;;
22752;SDS011;11543;43.144;24.684;2022-08-01T08:10:33;3.05;;;0.70;;
22752;SDS011;11543;43.144;24.684;2022-08-01T08:12:59;1.38;;;0.70;;
22752;SDS011;11543;43.144;24.684;2022-08-01T08:15:26;4.32;;;0.80;;
22752;SDS011;11543;43.144;24.684;2022-08-01T08:17:51;2.53;;;0.70;;
22752;SDS011;11543;43.144;24.684;2022-08-01T08:20:17;3.80;;;0.63;;
22752;SDS011;11543;43.144;24.684;2022-08-01T08:22:43;2.40;;;0.70;;
22752;SDS011;11543;43.144;24.684;2022-08-01T08:25:08;2.60;;;0.68;;
22752;SDS011;11543;43.144;24.684;2022-08-01T08:27:35;4.13;;;0.60;;
22752;SDS011;11543;43.144;24.684;2022-08-01T08:30:01;2.20;;;0.57;;
22752;SDS011;11543;43.144;24.684;2022-08-01T08:32:28;2.45;;;0.70;;
22752;SDS011;11543;43.144;24.684;2022-08-01T08:34:53;2.58;;;0.63;;
22752;SDS011;11543;43.144;24.684;2022-08-01T08:37:18;1.73;;;0.70;;
22752;SDS011;11543;43.144;24.684;2022-08-01T08:39:44;2.15;;;0.50;;
22752;SDS011;11543;43.144;24.684;2022-08-01T08:42:10;1.75;;;0.60;;
22752;SDS011;11543;43.144;24.684;2022-08-01T08:44:36;2.25;;;0.60;;
22752;SDS011;11543;43.144;24.684;2022-08-01T08:47:03;1.17;;;0.60;;
22752;SDS011;11543;43.144;24.684;2022-08-01T08:49:31;1.00;;;0.50;;
22752;SDS011;11543;43.144;24.684;2022-08-01T08:51:58;2.10;;;0.50;;
22752;SDS011;11543;43.144;24.684;2022-08-01T08:54:25;2.97;;;0.47;;
22752;SDS011;11543;43.144;24.684;2022-08-01T08:56:51;2.17;;;0.50;;
22752;SDS011;11543;43.144;24.684;2022-08-01T08:59:18;2.72;;;0.60;;
22752;SDS011;11543;43.144;24.684;2022-08-01T09:01:44;1.40;;;0.80;;
22752;SDS011;11543;43.144;24.684;2022-08-01T09:04:10;1.27;;;0.63;;
22752;SDS011;11543;43.144;24.684;2022-08-01T09:06:36;5.40;;;0.80;;
22752;SDS011;11543;43.144;24.684;2022-08-01T09:09:03;3.00;;;0.65;;
22752;SDS011;11543;43.144;24.684;2022-08-01T09:11:28;2.58;;;0.60;;
22752;SDS011;11543;43.144;24.684;2022-08-01T09:14:01;2.88;;;0.55;;
22752;SDS011;11543;43.144;24.684;2022-08-01T09:16:33;1.15;;;0.73;;
22752;SDS011;11543;43.144;24.684;2022-08-01T09:19:09;1.63;;;0.70;;
22752;SDS011;11543;43.144;24.684;2022-08-01T09:21:56;2.47;;;0.90;;
22752;SDS011;11543;43.144;24.684;2022-08-01T09:24:24;3.85;;;0.70;;
22752;SDS011;11543;43.144;24.684;2022-08-01T09:26:51;1.73;;;0.55;;
22752;SDS011;11543;43.144;24.684;2022-08-01T09:29:19;2.35;;;0.65;;
22752;SDS011;11543;43.144;24.684;2022-08-01T09:31:47;1.48;;;0.47;;
22752;SDS011;11543;43.144;24.684;2022-08-01T09:34:14;2.53;;;0.70;;
22752;SDS011;11543;43.144;24.684;2022-08-01T09:36:46;3.80;;;0.70;;
22752;SDS011;11543;43.144;24.684;2022-08-01T09:39:17;2.38;;;0.60;;
22752;SDS011;11543;43.144;24.684;2022-08-01T09:41:44;1.05;;;0.40;;
22752;SDS011;11543;43.144;24.684;2022-08-01T09:44:10;2.10;;;0.60;;
22752;SDS011;11543;43.144;24.684;2022-08-01T09:46:35;2.17;;;0.60;;
22752;SDS011;11543;43.144;24.684;2022-08-01T09:49:02;2.95;;;0.60;;
22752;SDS011;11543;43.144;24.684;2022-08-01T09:51:31;2.80;;;0.60;;
22752;SDS011;11543;43.144;24.684;2022-08-01T09:54:04;1.52;;;0.60;;
22752;SDS011;11543;43.144;24.684;2022-08-01T09:56:40;1.20;;;0.63;;
22752;SDS011;11543;43.144;24.684;2022-08-01T09:59:07;2.10;;;0.75;;
22752;SDS011;11543;43.144;24.684;2022-08-01T10:01:44;2.00;;;0.60;;
22752;SDS011;11543;43.144;24.684;2022-08-01T10:04:18;3.65;;;0.70;;
22752;SDS011;11543;43.144;24.684;2022-08-01T10:06:48;2.88;;;0.63;;
22752;SDS011;11543;43.144;24.684;2022-08-01T10:09:32;3.10;;;0.52;;
22752;SDS011;11543;43.144;24.684;2022-08-01T10:12:01;4.10;;;0.70;;
22752;SDS011;11543;43.144;24.684;2022-08-01T10:14:29;4.15;;;0.65;;
22752;SDS011;11543;43.144;24.684;2022-08-01T10:16:56;1.13;;;0.60;;
22752;SDS011;11543;43.144;24.684;2022-08-01T10:19:24;1.20;;;0.60;;
22752;SDS011;11543;43.144;24.684;2022-08-01T10:21:51;0.63;;;0.50;;
22752;SDS011;11543;43.144;24.684;2022-08-01T10:24:22;2.25;;;0.68;;
22752;SDS011;11543;43.144;24.684;2022-08-01T10:26:49;1.33;;;0.60;;
22752;SDS011;11543;43.144;24.684;2022-08-01T10:29:17;1.85;;;0.60;;
22752;SDS011;11543;43.144;24.684;2022-08-01T10:31:45;0.93;;;0.70;;
22752;SDS011;11543;43.144;24.684;2022-08-01T10:34:12;0.95;;;0.50;;
22752;SDS011;11543;43.144;24.684;2022-08-01T10:36:46;2.55;;;0.50;;
22752;SDS011;11543;43.144;24.684;2022-08-01T10:39:13;1.80;;;0.55;;
22752;SDS011;11543;43.144;24.684;2022-08-01T10:41:39;2.13;;;0.52;;
22752;SDS011;11543;43.144;24.684;2022-08-01T10:44:08;3.22;;;0.60;;
22752;SDS011;11543;43.144;24.684;2022-08-01T10:46:37;2.85;;;0.50;;
22752;SDS011;11543;43.144;24.684;2022-08-01T10:51:37;2.25;;;0.50;;
22752;SDS011;11543;43.144;24.684;2022-08-01T10:54:07;1.90;;;0.52;;
22752;SDS011;11543;43.144;24.684;2022-08-01T10:56:44;2.83;;;0.50;;
22752;SDS011;11543;43.144;24.684;2022-08-01T11:01:56;2.75;;;0.60;;
22752;SDS011;11543;43.144;24.684;2022-08-01T11:04:41;1.85;;;0.60;;
22752;SDS011;11543;43.144;24.684;2022-08-01T11:07:16;2.45;;;0.40;;
22752;SDS011;11543;43.144;24.684;2022-08-01T11:09:46;0.80;;;0.50;;
22752;SDS011;11543;43.144;24.684;2022-08-01T11:12:16;1.48;;;0.50;;
22752;SDS011;11543;43.144;24.684;2022-08-01T11:20:05;4.28;;;0.57;;
22752;SDS011;11543;43.144;24.684;2022-08-01T11:30:50;2.95;;;0.60;;
22752;SDS011;11543;43.144;24.684;2022-08-01T11:33:47;2.42;;;0.50;;
22752;SDS011;11543;43.144;24.684;2022-08-01T11:38:44;0.85;;;0.50;;
22752;SDS011;11543;43.144;24.684;2022-08-01T11:41:23;2.72;;;0.40;;
22752;SDS011;11543;43.144;24.684;2022-08-01T11:43:57;0.70;;;0.50;;
22752;SDS011;11543;43.144;24.684;2022-08-01T11:49:30;4.23;;;0.70;;
22752;SDS011;11543;43.144;24.684;2022-08-01T11:52:29;2.05;;;0.80;;
22752;SDS011;11543;43.144;24.684;2022-08-01T11:57:26;0.93;;;0.40;;
22752;SDS011;11543;43.144;24.684;2022-08-01T12:00:00;0.50;;;0.40;;
22752;SDS011;11543;43.144;24.684;2022-08-01T12:02:30;1.67;;;0.40;;
22752;SDS011;11543;43.144;24.684;2022-08-01T12:05:06;2.35;;;0.73;;
22752;SDS011;11543;43.144;24.684;2022-08-01T12:07:36;3.08;;;0.45;;
22752;SDS011;11543;43.144;24.684;2022-08-01T12:10:07;2.60;;;0.52;;
22752;SDS011;11543;43.144;24.684;2022-08-01T12:15:00;3.63;;;0.50;;
22752;SDS011;11543;43.144;24.684;2022-08-01T12:17:35;0.82;;;0.50;;
22752;SDS011;11543;43.144;24.684;2022-08-01T12:20:03;4.20;;;0.50;;
22752;SDS011;11543;43.144;24.684;2022-08-01T12:22:30;1.83;;;0.40;;
22752;SDS011;11543;43.144;24.684;2022-08-01T12:24:56;1.30;;;0.40;;
22752;SDS011;11543;43.144;24.684;2022-08-01T12:27:31;1.60;;;0.50;;
22752;SDS011;11543;43.144;24.684;2022-08-01T12:29:57;1.85;;;0.70;;
22752;SDS011;11543;43.144;24.684;2022-08-01T12:34:49;0.88;;;0.40;;
22752;SDS011;11543;43.144;24.684;2022-08-01T12:37:16;0.73;;;0.40;;
22752;SDS011;11543;43.144;24.684;2022-08-01T12:39:43;0.70;;;0.50;;
22752;SDS011;11543;43.144;24.684;2022-08-01T12:42:09;1.48;;;0.40;;
22752;SDS011;11543;43.144;24.684;2022-08-01T12:44:36;1.60;;;0.50;;
22752;SDS011;11543;43.144;24.684;2022-08-01T12:47:07;1.45;;;0.50;;
22752;SDS011;11543;43.144;24.684;2022-08-01T12:49:35;2.22;;;0.43;;
22752;SDS011;11543;43.144;24.684;2022-08-01T12:52:01;2.13;;;0.40;;
22752;SDS011;11543;43.144;24.684;2022-08-01T12:54:28;0.75;;;0.50;;
22752;SDS011;11543;43.144;24.684;2022-08-01T12:56:53;1.13;;;0.50;;
22752;SDS011;11543;43.144;24.684;2022-08-01T12:59:26;0.90;;;0.50;;
22752;SDS011;11543;43.144;24.684;2022-08-01T13:01:54;1.40;;;0.50;;
22752;SDS011;11543;43.144;24.684;2022-08-01T13:04:20;2.63;;;0.60;;
22752;SDS011;11543;43.144;24.684;2022-08-01T13:06:47;1.23;;;0.47;;
22752;SDS011;11543;43.144;24.684;2022-08-01T13:09:17;0.73;;;0.50;;
22752;SDS011;11543;43.144;24.684;2022-08-01T13:11:43;3.88;;;0.60;;
22752;SDS011;11543;43.144;24.684;2022-08-01T13:14:10;1.15;;;0.50;;
22752;SDS011;11543;43.144;24.684;2022-08-01T13:16:52;1.35;;;0.60;;
22752;SDS011;11543;43.144;24.684;2022-08-01T13:19:17;8.10;;;1.08;;
22752;SDS011;11543;43.144;24.684;2022-08-01T13:21:53;1.02;;;0.40;;
22752;SDS011;11543;43.144;24.684;2022-08-01T13:24:24;0.85;;;0.40;;
22752;SDS011;11543;43.144;24.684;2022-08-01T13:26:55;1.65;;;0.40;;
22752;SDS011;11543;43.144;24.684;2022-08-01T13:32:15;0.43;;;0.40;;
22752;SDS011;11543;43.144;24.684;2022-08-01T13:34:42;0.60;;;0.38;;
22752;SDS011;11543;43.144;24.684;2022-08-01T13:37:07;2.08;;;0.40;;
22752;SDS011;11543;43.144;24.684;2022-08-01T13:39:33;2.38;;;0.60;;
22752;SDS011;11543;43.144;24.684;2022-08-01T13:42:06;0.45;;;0.38;;
22752;SDS011;11543;43.144;24.684;2022-08-01T13:44:35;1.48;;;0.30;;
22752;SDS011;11543;43.144;24.684;2022-08-01T13:47:02;1.70;;;0.38;;
22752;SDS011;11543;43.144;24.684;2022-08-01T13:49:28;0.88;;;0.50;;
22752;SDS011;11543;43.144;24.684;2022-08-01T13:51:53;0.43;;;0.30;;
22752;SDS011;11543;43.144;24.684;2022-08-01T13:54:19;1.30;;;0.40;;
22752;SDS011;11543;43.144;24.684;2022-08-01T13:56:45;1.55;;;0.30;;
22752;SDS011;11543;43.144;24.684;2022-08-01T13:59:10;0.30;;;0.30;;
22752;SDS011;11543;43.144;24.684;2022-08-01T14:01:37;1.08;;;0.30;;
22752;SDS011;11543;43.144;24.684;2022-08-01T14:04:02;0.40;;;0.30;;
22752;SDS011;11543;43.144;24.684;2022-08-01T14:06:28;0.68;;;0.52;;
22752;SDS011;11543;43.144;24.684;2022-08-01T14:08:54;2.25;;;0.35;;
22752;SDS011;11543;43.144;24.684;2022-08-01T14:11:20;0.57;;;0.40;;
22752;SDS011;11543;43.144;24.684;2022-08-01T14:13:45;0.55;;;0.30;;
22752;SDS011;11543;43.144;24.684;2022-08-01T14:16:11;0.52;;;0.30;;
22752;SDS011;11543;43.144;24.684;2022-08-01T14:18:36;0.30;;;0.30;;
22752;SDS011;11543;43.144;24.684;2022-08-01T14:21:02;0.30;;;0.30;;
22752;SDS011;11543;43.144;24.684;2022-08-01T14:23:27;1.65;;;0.43;;
22752;SDS011;11543;43.144;24.684;2022-08-01T14:25:53;1.33;;;0.32;;
22752;SDS011;11543;43.144;24.684;2022-08-01T14:28:19;0.63;;;0.30;;
22752;SDS011;11543;43.144;24.684;2022-08-01T14:30:44;0.85;;;0.30;;
22752;SDS011;11543;43.144;24.684;2022-08-01T14:33:10;1.50;;;0.50;;
22752;SDS011;11543;43.144;24.684;2022-08-01T14:35:36;1.17;;;0.43;;
22752;SDS011;11543;43.144;24.684;2022-08-01T14:38:02;1.17;;;0.40;;
22752;SDS011;11543;43.144;24.684;2022-08-01T14:40:27;0.60;;;0.30;;
22752;SDS011;11543;43.144;24.684;2022-08-01T14:42:53;1.95;;;0.40;;
22752;SDS011;11543;43.144;24.684;2022-08-01T14:45:19;0.45;;;0.30;;
22752;SDS011;11543;43.144;24.684;2022-08-01T14:47:44;3.53;;;0.40;;
22752;SDS011;11543;43.144;24.684;2022-08-01T14:50:11;2.17;;;0.57;;
22752;SDS011;11543;43.144;24.684;2022-08-01T14:52:39;0.40;;;0.30;;
22752;SDS011;11543;43.144;24.684;2022-08-01T14:55:06;2.10;;;0.57;;
22752;SDS011;11543;43.144;24.684;2022-08-01T14:57:33;0.82;;;0.30;;
22752;SDS011;11543;43.144;24.684;2022-08-01T14:59:59;0.70;;;0.40;;
22752;SDS011;11543;43.144;24.684;2022-08-01T15:02:25;0.40;;;0.40;;
22752;SDS011;11543;43.144;24.684;2022-08-01T15:04:53;0.43;;;0.30;;
22752;SDS011;11543;43.144;24.684;2022-08-01T15:07:19;0.65;;;0.30;;
22752;SDS011;11543;43.144;24.684;2022-08-01T15:09:44;3.25;;;0.25;;
22752;SDS011;11543;43.144;24.684;2022-08-01T15:12:16;1.00;;;0.30;;
22752;SDS011;11543;43.144;24.684;2022-08-01T15:14:42;0.50;;;0.38;;